Latest Weather Observations for Wulungurru (Kintore)

IDD60801

Issued at 10:05 pm CST Wednesday 27 August 2014 (issued every 30 minutes, with the page automatically refreshed every 10 minutes)

About weather observations | Map of weather stations | Latest weather observations for NT | Other Formats
Station Details ID: 015664 Name: WALUNGURRU AIRPORT Lat: -23.27 Lon: 129.38 Height: 454.3 m
Data from the previous 72 hours. | See also: Recent months at Wulungurru (Kintore)
Date/Time
CST
Temp
°C
App
Temp
°C
Dew
Point
Rel
Hum
%
Delta-T
°C
Wind Press
QNH
hPa
Press
MSL
hPa
Rain
since 9 am
mm
Dir
 
Spd
km/h
Gust
km/h
Spd
kts
Gust
kts
27/10:00pm 16.8 12.3 -6.9 19 9.0 SE 9 17 5 9 1021.8 - 0.0
27/09:30pm 18.6 13.0 -6.9 17 9.9 SSE 15 19 8 10 1021.8 - 0.0
27/09:00pm 16.7 12.3 -5.7 21 8.7 E 9 13 5 7 1021.6 1020.9 0.0
27/08:30pm 17.4 12.2 -6.4 19 9.2 SSE 13 15 7 8 1021.0 - 0.0
27/08:00pm 18.8 14.3 -6.7 17 10.0 SE 9 9 5 5 1020.6 - 0.0
27/07:30pm 20.2 15.6 -8.1 14 10.9 SE 9 11 5 6 1020.1 - 0.0
27/07:00pm 22.8 17.3 -9.2 11 12.4 ESE 13 17 7 9 1019.8 - 0.0
27/06:30pm 24.9 19.4 -10.1 9 13.6 E 13 17 7 9 1019.6 - 0.0
27/06:00pm 26.5 20.7 -8.9 9 14.3 E 15 20 8 11 1019.4 1018.7 0.0
27/05:30pm 27.3 21.0 -9.8 8 14.9 ENE 17 22 9 12 1019.4 - 0.0
27/05:00pm 27.6 21.7 -9.6 8 15.0 ESE 15 24 8 13 1019.4 - 0.0
27/04:30pm 27.7 21.5 -9.5 8 15.1 E 17 26 9 14 1019.3 - 0.0
27/04:00pm 27.8 21.6 -9.4 8 15.1 E 17 26 9 14 1019.3 - 0.0
27/03:30pm 27.8 22.3 -9.4 8 15.1 ENE 13 24 7 13 1019.5 - 0.0
27/03:00pm 27.4 20.9 -8.2 9 14.7 NE 19 30 10 16 1019.5 1018.8 0.0
27/02:30pm 27.7 21.8 -9.5 8 15.1 E 15 26 8 14 1019.9 - 0.0
27/02:00pm 27.2 21.0 -8.4 9 14.6 E 17 28 9 15 1020.4 - 0.0
27/01:30pm 26.7 20.1 -8.8 9 14.4 E 19 30 10 16 1020.9 - 0.0
27/01:00pm 26.4 19.0 -7.6 10 14.1 E 24 32 13 17 1021.5 - 0.0
27/12:30pm 26.3 19.6 -7.7 10 14.0 ENE 20 32 11 17 1021.9 - 0.0
27/12:00pm 25.6 19.5 -8.2 10 13.7 ENE 17 26 9 14 1022.5 1021.9 0.0
27/11:30am 24.9 18.3 -8.8 10 13.5 ENE 19 26 10 14 1023.0 - 0.0
27/11:00am 23.8 16.6 -9.6 10 13.0 ENE 22 30 12 16 1023.5 - 0.0
27/10:30am 22.8 14.9 -9.2 11 12.4 ENE 26 32 14 17 1023.5 - 0.0
27/10:00am 21.6 12.8 -10.1 11 11.9 ENE 30 39 16 21 1023.5 - 0.0
27/09:30am 20.4 12.6 -8.0 14 10.9 ENE 26 33 14 18 1023.3 - 0.0
27/09:00am 18.4 10.6 -7.8 16 9.9 ENE 26 33 14 18 1023.1 1022.5 0.0
27/08:30am 17.3 9.1 -7.9 17 9.5 ENE 28 37 15 20 1022.8 - 0.0
27/08:00am 16.1 8.4 -6.8 20 8.7 ENE 26 33 14 18 1022.4 - 0.0
27/07:30am 15.5 7.4 -6.7 21 8.4 ENE 28 37 15 20 1022.0 - 0.0
27/07:00am 15.3 7.6 -6.3 22 8.2 ENE 26 35 14 19 1021.8 - 0.0
27/06:30am 16.0 7.9 -6.3 21 8.5 ENE 28 37 15 20 1021.7 - 0.0
27/06:00am 16.3 8.3 -6.0 21 8.6 E 28 35 15 19 1021.5 1020.8 0.0
27/05:30am 16.3 8.7 -6.0 21 8.6 E 26 33 14 18 1021.2 - 0.0
27/05:00am 16.9 8.9 -6.2 20 8.9 E 28 37 15 20 1020.8 - 0.0
27/04:30am 17.2 9.6 -5.9 20 9.0 E 26 33 14 18 1020.7 - 0.0
27/04:00am 17.9 10.3 -6.0 19 9.4 E 26 37 14 20 1020.8 - 0.0
27/03:30am 18.8 10.7 -6.7 17 10.0 E 28 37 15 20 1020.8 - 0.0
27/03:00am 19.5 11.5 -6.2 17 10.2 E 28 35 15 19 1020.9 1020.3 0.0
27/02:30am 20.2 12.9 -6.4 16 10.6 E 24 33 13 18 1021.2 - 0.0
27/02:00am 19.7 12.1 -6.0 17 10.3 ESE 26 35 14 19 1021.4 - 0.0
27/01:30am 18.4 11.9 -5.6 19 9.6 SE 20 26 11 14 1021.7 - 0.0
27/01:00am 19.8 12.5 -5.9 17 10.3 SE 24 33 13 18 1022.0 - 0.0
27/12:30am 20.1 12.9 -5.7 17 10.4 SE 24 35 13 19 1022.1 - 0.0
27/12:00am 20.0 12.7 -6.6 16 10.5 SE 24 32 13 17 1022.0 1021.3 0.0
 
Date/Time
CST
Temp
°C
App
Temp
°C
Dew
Point
Rel
Hum
%
Delta-T
°C
Wind Press
QNH
hPa
Press
MSL
hPa
Rain
since 9 am
mm
Dir
 
Spd
km/h
Gust
km/h
Spd
kts
Gust
kts
26/11:30pm 19.9 13.5 -5.1 18 10.2 SE 20 28 11 15 1022.1 - 0.0
26/11:00pm 18.1 11.9 -5.2 20 9.3 SSE 19 22 10 12 1022.1 - 0.0
26/10:30pm 17.3 11.1 -4.6 22 8.8 SSE 19 24 10 13 1022.1 - 0.0
26/10:00pm 17.6 12.1 -5.0 21 9.0 SSE 15 17 8 9 1022.1 - 0.0
26/09:30pm 18.0 12.2 -4.6 21 9.1 SSE 17 19 9 10 1021.9 - 0.0
26/09:00pm 17.3 12.3 -4.0 23 8.6 SSE 13 15 7 8 1021.7 1021.0 0.0
26/08:30pm 17.8 13.2 -4.2 22 9.0 SSE 11 13 6 7 1021.5 - 0.0
26/08:00pm 19.5 14.9 -4.0 20 9.8 SE 11 15 6 8 1021.3 - 0.0
26/07:30pm 19.7 15.1 -3.9 20 9.9 SE 11 15 6 8 1020.9 - 0.0
26/07:00pm 21.2 16.9 -4.8 17 10.8 ESE 9 11 5 6 1020.8 - 0.0
26/06:30pm 23.8 19.5 -5.3 14 12.3 ESE 9 15 5 8 1020.7 - 0.0
26/06:00pm 25.4 20.3 -5.0 13 13.1 ENE 13 19 7 10 1020.5 1019.9 0.0
26/05:30pm 26.0 21.2 -5.6 12 13.5 ENE 11 17 6 9 1020.3 - 0.0
26/05:00pm 26.7 22.0 -5.0 12 13.8 ENE 11 20 6 11 1020.4 - 0.0
26/04:30pm 26.5 22.4 -6.3 11 13.9 E 7 19 4 10 1020.4 - 0.0
26/04:00pm 26.5 21.7 -6.3 11 13.9 ENE 11 24 6 13 1020.5 - 0.0
26/03:30pm 26.4 20.8 -6.4 11 13.9 NE 15 24 8 13 1020.7 - 0.0
26/03:00pm 26.5 21.4 -5.2 12 13.7 ENE 13 24 7 13 1020.9 1020.3 0.0
26/02:30pm 26.0 21.4 -4.5 13 13.3 NNE 11 20 6 11 1021.5 - 0.0
26/02:00pm 25.8 20.7 -1.9 16 12.7 ESE 15 22 8 12 1021.9 - 0.0
26/01:30pm 25.5 19.4 -2.1 16 12.5 NE 20 30 11 16 1022.4 - 0.0
26/01:00pm 24.8 18.7 -2.7 16 12.3 NE 20 43 11 23 1023.0 - 0.0
26/12:30pm 24.6 18.5 -2.0 17 12.0 E 20 28 11 15 1023.7 - 0.0
26/12:00pm 24.1 18.1 -1.7 18 11.6 ENE 20 30 11 16 1024.1 1023.5 0.0
26/11:30am 23.6 17.7 -2.1 18 11.5 E 19 28 10 15 1024.6 - 0.0
26/11:00am 23.3 16.2 -1.6 19 11.2 ENE 26 33 14 18 1025.1 - 0.0
26/10:30am 22.7 14.8 -1.4 20 10.9 ENE 30 37 16 20 1025.4 - 0.0
26/10:00am 21.5 14.8 -1.1 22 10.1 ENE 24 32 13 17 1025.3 - 0.0
26/09:30am 19.9 13.1 -1.8 23 9.5 ENE 24 35 13 19 1025.1 - 0.0
26/09:00am 18.8 12.0 -2.2 24 9.0 ENE 24 32 13 17 1025.1 1024.5 0.0
26/08:30am 18.5 11.3 -2.4 24 8.9 E 26 35 14 19 1024.8 - 0.0
26/08:00am 18.2 11.2 -3.2 23 8.9 E 24 32 13 17 1024.6 - 0.0
26/07:30am 17.5 10.5 -3.3 24 8.6 E 24 32 13 17 1024.3 - 0.0
26/07:00am 17.4 10.4 -3.9 23 8.7 E 24 33 13 18 1023.9 - 0.0
26/06:30am 17.6 10.6 -3.7 23 8.8 E 24 35 13 19 1023.6 - 0.0
26/06:00am 18.2 10.8 -3.8 22 9.0 E 26 33 14 18 1023.2 1022.6 0.0
26/05:30am 18.4 10.9 -4.3 21 9.3 E 26 35 14 19 1023.5 - 0.0
26/05:00am 19.0 11.5 -4.4 20 9.6 E 26 35 14 19 1023.3 - 0.0
26/04:30am 19.2 11.7 -4.3 20 9.7 E 26 35 14 19 1023.1 - 0.0
26/04:00am 19.4 11.6 -4.1 20 9.7 E 28 37 15 20 1023.1 - 0.0
26/03:30am 19.5 11.6 -4.7 19 9.9 E 28 39 15 21 1023.1 - 0.0
26/03:00am 19.6 11.7 -4.6 19 9.9 E 28 39 15 21 1023.1 1022.5 0.0
26/02:30am 20.1 11.4 -4.9 18 10.3 E 32 44 17 24 1023.2 - 0.0
26/02:00am 20.3 11.6 -4.8 18 10.4 E 32 48 17 26 1023.3 - 0.0
26/01:30am 20.5 11.9 -4.6 18 10.4 E 32 41 17 22 1023.6 - 0.0
26/01:00am 20.4 11.8 -4.0 19 10.2 E 32 43 17 23 1023.7 - 0.0
26/12:30am 20.7 12.8 -4.4 18 10.5 E 28 39 15 21 1023.8 - 0.0
26/12:00am 20.6 12.0 -3.8 19 10.2 ESE 32 44 17 24 1023.8 1023.1 0.0
 
Date/Time
CST
Temp
°C
App
Temp
°C
Dew
Point
Rel
Hum
%
Delta-T
°C
Wind Press
QNH
hPa
Press
MSL
hPa
Rain
since 9 am
mm
Dir
 
Spd
km/h
Gust
km/h
Spd
kts
Gust
kts
25/11:30pm 21.4 12.6 -3.9 18 10.7 ESE 33 43 18 23 1023.8 - 0.0
25/11:00pm 21.9 13.1 -4.2 17 11.1 ESE 33 48 18 26 1023.9 - 0.0
25/10:30pm 21.2 13.5 -3.3 19 10.5 ESE 28 37 15 20 1023.9 - 0.0
25/10:00pm 21.5 13.3 -3.8 18 10.8 SE 30 41 16 22 1024.0 - 0.0
25/09:30pm 21.2 14.1 -4.0 18 10.7 SE 24 37 13 20 1024.0 - 0.0
25/09:00pm 21.7 15.1 -3.6 18 10.8 SE 22 32 12 17 1023.8 1023.1 0.0
25/08:30pm 21.9 15.7 -3.5 18 10.9 SSE 20 28 11 15 1023.7 - 0.0
25/08:00pm 22.4 17.0 -4.6 16 11.4 SE 15 20 8 11 1023.2 - 0.0
25/07:30pm 22.5 17.5 -4.5 16 11.4 SE 13 17 7 9 1022.9 - 0.0
25/07:00pm 23.5 18.5 -4.6 15 12.0 ESE 13 22 7 12 1022.7 - 0.0
25/06:30pm 24.6 19.5 -5.6 13 12.8 ESE 13 19 7 10 1022.4 - 0.0
25/06:00pm 25.8 20.0 -4.7 13 13.2 ESE 17 26 9 14 1022.2 1021.6 0.0
25/05:30pm 26.4 20.2 -5.3 12 13.7 E 19 28 10 15 1022.1 - 0.0
25/05:00pm 27.1 20.6 -5.9 11 14.2 SE 20 30 11 16 1021.9 - 0.0
25/04:30pm 27.5 21.3 -4.4 12 14.1 ESE 19 32 10 17 1022.0 - 0.0
25/04:00pm 27.1 20.3 -4.7 12 14.0 E 22 37 12 20 1021.9 - 0.0
25/03:30pm 27.0 20.7 -3.7 13 13.7 E 20 28 11 15 1022.2 - 0.0
25/03:00pm 27.4 21.2 -3.4 13 13.8 E 20 30 11 16 1022.5 1021.9 0.0
25/02:30pm 27.2 19.8 -3.6 13 13.8 E 26 39 14 21 1022.7 - 0.0
25/02:00pm 27.2 19.8 -3.6 13 13.8 E 26 37 14 20 1023.2 - 0.0
25/01:30pm 26.3 18.7 -2.4 15 13.1 E 28 44 15 24 1023.6 - 0.0
25/01:00pm 26.6 19.5 -1.3 16 13.0 E 26 41 14 22 1024.4 - 0.0
25/12:30pm 26.2 18.7 -1.6 16 12.8 E 28 41 15 22 1025.0 - 0.0
25/12:00pm 25.3 18.3 -0.7 18 12.1 E 26 41 14 22 1025.5 1024.9 0.0
25/11:34am 24.8 17.3 -1.1 18 11.9 ENE 28 50 15 27 1026.1 - 0.0
25/11:30am 25.1 17.8 -0.1 19 11.9 ENE 28 39 15 21 1026.2 - 0.0
25/11:00am 24.2 16.5 -0.2 20 11.4 ENE 30 37 16 20 1026.5 - 0.0
25/10:30am 23.7 16.1 0.7 22 10.9 ENE 30 41 16 22 1027.0 - 0.0
25/10:00am 22.7 14.7 0.5 23 10.4 ENE 32 39 17 21 1027.1 - 0.0
25/09:30am 21.7 14.0 -0.3 23 10.0 ENE 30 39 16 21 1027.0 - 0.0
25/09:00am 20.0 12.9 -1.2 24 9.3 E 26 33 14 18 1027.0 1026.4 0.0
25/08:30am 18.9 11.8 -1.5 25 8.9 E 26 33 14 18 1026.6 - 0.0
25/08:00am 18.8 10.8 -2.2 24 9.0 E 30 39 16 21 1026.2 - 0.0
25/07:30am 18.0 10.4 -2.3 25 8.6 E 28 37 15 20 1026.0 - 0.0
25/07:00am 18.3 10.6 -2.6 24 8.8 E 28 37 15 20 1025.9 - 0.0
25/06:30am 18.5 10.5 -2.4 24 8.9 E 30 35 16 19 1025.4 - 0.0
25/06:00am 19.0 11.3 -2.6 23 9.2 E 28 37 15 20 1025.0 1024.4 0.0
25/05:30am 19.5 11.8 -2.8 22 9.5 E 28 39 15 21 1024.9 - 0.0
25/05:00am 19.9 11.9 -2.4 22 9.6 E 30 41 16 22 1024.8 - 0.0
25/04:30am 20.2 12.9 -2.8 21 9.9 E 26 35 14 19 1024.8 - 0.0
25/04:00am 20.3 13.0 -2.7 21 9.9 E 26 35 14 19 1024.6 - 0.0
25/03:30am 20.3 12.3 -2.7 21 9.9 E 30 39 16 21 1024.8 - 0.0
25/03:00am 20.2 11.8 -2.8 21 9.8 E 32 41 17 22 1024.8 1024.2 0.0
25/02:30am 19.8 11.7 -3.1 21 9.7 E 30 41 16 22 1024.8 - 0.0
25/02:00am 20.5 12.0 -3.2 20 10.1 E 32 43 17 23 1024.9 - 0.0
25/01:30am 21.4 12.7 -3.1 19 10.6 E 33 43 18 23 1024.8 - 0.0
25/01:00am 21.9 13.4 -3.5 18 10.9 E 32 43 17 23 1024.9 - 0.0
25/12:30am 22.2 13.4 -4.0 17 11.2 E 33 44 18 24 1025.0 - 0.0
25/12:00am 22.2 14.4 -4.0 17 11.1 E 28 43 15 23 1024.9 1024.3 0.0
 
Date/Time
CST
Temp
°C
App
Temp
°C
Dew
Point
Rel
Hum
%
Delta-T
°C
Wind Press
QNH
hPa
Press
MSL
hPa
Rain
since 9 am
mm
Dir
 
Spd
km/h
Gust
km/h
Spd
kts
Gust
kts
24/11:30pm 22.7 14.1 -4.4 16 11.5 E 32 43 17 23 1024.9 - 0.0
24/11:00pm 22.7 13.9 -4.4 16 11.5 ESE 33 44 18 24 1024.9 - 0.0
24/10:30pm 22.9 14.3 -4.2 16 11.6 ESE 32 44 17 24 1024.8 - 0.0
24/10:14pm 23.2 15.0 -4.0 16 11.7 ESE 30 50 16 27 1024.7 - 0.0

Other Formats:

Comma delimited format used in spreadsheet applications
http://www.bom.gov.au/fwo/IDD60801/IDD60801.94321.axf

JavaScript Object Notation format (JSON) in row-major order
http://www.bom.gov.au/fwo/IDD60801/IDD60801.94321.json